createdAt,value
2018-02-18T00:01:45.937Z,59.25
2018-02-18T00:04:17.155Z,60.25
2018-02-18T00:06:47.739Z,59.50
2018-02-18T00:09:19.207Z,56.75
2018-02-18T00:11:55.541Z,54.25
2018-02-18T00:14:32.658Z,62.00
2018-02-18T00:17:07.926Z,55.50
2018-02-18T00:19:40.023Z,61.50
2018-02-18T00:22:11.044Z,53.25
2018-02-18T00:24:41.570Z,61.50
2018-02-18T00:27:11.991Z,56.00
2018-02-18T00:29:44.243Z,51.00
2018-02-18T00:32:15.054Z,60.25
2018-02-18T00:34:45.618Z,56.50
2018-02-18T00:37:17.297Z,60.00
2018-02-18T00:39:47.840Z,49.25
2018-02-18T00:42:20.885Z,58.25
2018-02-18T00:44:53.548Z,62.50
2018-02-18T00:47:25.991Z,61.00
2018-02-18T00:49:59.203Z,56.75
2018-02-18T00:52:29.836Z,64.75
2018-02-18T00:55:04.267Z,57.75
2018-02-18T00:57:35.316Z,44.75
2018-02-18T01:00:08.094Z,54.00
2018-02-18T01:02:38.675Z,59.00
2018-02-18T01:05:09.371Z,45.50
2018-02-18T01:07:39.888Z,46.00
2018-02-18T01:10:11.888Z,53.50
2018-02-18T01:12:43.320Z,53.25
2018-02-18T01:15:16.120Z,43.25
2018-02-18T01:17:49.276Z,57.50
2018-02-18T01:20:33.037Z,55.75
2018-02-18T01:26:05.086Z,60.25
2018-02-18T01:28:37.075Z,54.25
2018-02-18T01:31:07.886Z,44.75
2018-02-18T01:33:40.485Z,57.75
2018-02-18T01:36:11.631Z,47.75
2018-02-18T01:38:43.870Z,55.50
2018-02-18T01:41:15.289Z,51.25
2018-02-18T01:43:46.712Z,56.25
2018-02-18T01:46:21.540Z,58.50
2018-02-18T01:48:52.455Z,53.25
2018-02-18T01:51:23.452Z,49.50
2018-02-18T01:53:53.954Z,57.25
2018-02-18T01:56:26.806Z,60.50
2018-02-18T01:58:57.953Z,53.25
2018-02-18T02:01:29.392Z,55.25
2018-02-18T02:04:00.255Z,55.75
2018-02-18T02:06:30.811Z,47.25
2018-02-18T02:09:02.659Z,48.00
2018-02-18T02:11:32.975Z,48.25
2018-02-18T02:14:04.640Z,42.50
2018-02-18T02:16:35.968Z,45.25
2018-02-18T02:19:07.083Z,37.75
2018-02-18T02:21:38.236Z,38.25
2018-02-18T02:24:09.997Z,47.75
2018-02-18T02:26:41.282Z,47.75
2018-02-18T02:29:14.929Z,40.25
2018-02-18T02:31:46.466Z,43.00
2018-02-18T02:34:16.616Z,38.50
2018-02-18T02:36:47.209Z,38.50
2018-02-18T02:39:17.689Z,42.00
2018-02-18T02:41:51.316Z,43.25
2018-02-18T02:44:25.774Z,45.00
2018-02-18T02:46:59.286Z,48.50
2018-02-18T02:49:33.350Z,42.00
2018-02-18T02:52:04.125Z,42.50
2018-02-18T02:54:34.686Z,40.50
2018-02-18T02:57:08.172Z,41.25
2018-02-18T02:59:41.284Z,41.00
2018-02-18T03:02:12.237Z,49.75
2018-02-18T03:04:42.825Z,43.50
2018-02-18T03:07:13.200Z,47.50
2018-02-18T03:09:43.856Z,42.75
2018-02-18T03:12:18.290Z,44.75
2018-02-18T03:14:55.047Z,43.50
2018-02-18T03:17:30.147Z,47.00
2018-02-18T03:20:01.732Z,38.50
2018-02-18T03:22:32.597Z,41.75
2018-02-18T03:25:03.675Z,36.25
2018-02-18T03:27:34.100Z,32.75
2018-02-18T03:30:08.573Z,36.50
2018-02-18T03:32:39.420Z,39.25
2018-02-18T03:35:09.937Z,42.50
2018-02-18T03:37:41.427Z,34.00
2018-02-18T03:40:11.950Z,38.25
2018-02-18T03:42:45.192Z,40.50
2018-02-18T03:45:18.160Z,36.50
2018-02-18T03:47:48.373Z,36.75
2018-02-18T03:50:19.833Z,30.25
2018-02-18T03:52:50.250Z,40.75
2018-02-18T03:55:20.519Z,32.00
2018-02-18T03:57:52.216Z,38.75
2018-02-18T04:00:22.844Z,34.25
2018-02-18T04:02:53.985Z,40.50
2018-02-18T04:05:24.844Z,46.25
2018-02-18T04:07:56.411Z,44.00
2018-02-18T04:10:27.116Z,35.50
2018-02-18T04:12:57.514Z,36.25
2018-02-18T04:15:27.753Z,41.00
2018-02-18T04:17:58.566Z,33.25
2018-02-18T04:20:28.908Z,36.50
2018-02-18T04:23:00.417Z,36.50
2018-02-18T04:25:34.576Z,36.50
2018-02-18T04:28:05.134Z,35.00
2018-02-18T04:30:36.964Z,37.50
2018-02-18T04:33:07.751Z,38.25
2018-02-18T04:35:38.360Z,39.25
2018-02-18T04:38:16.727Z,29.00
2018-02-18T04:40:46.983Z,36.25
2018-02-18T04:43:17.773Z,34.00
2018-02-18T04:45:48.269Z,41.50
2018-02-18T04:48:18.407Z,35.50
2018-02-18T04:50:49.152Z,43.00
2018-02-18T04:53:19.579Z,42.25
2018-02-18T04:55:50.239Z,41.50
2018-02-18T04:58:22.360Z,39.75
2018-02-18T05:00:53.136Z,36.00
2018-02-18T05:03:23.565Z,39.25
2018-02-18T05:05:54.349Z,47.25
2018-02-18T05:08:36.043Z,44.75
2018-02-18T05:11:06.922Z,36.75
2018-02-18T05:13:38.257Z,39.25
2018-02-18T05:16:09.027Z,36.75
2018-02-18T05:18:40.268Z,43.75
2018-02-18T05:21:10.608Z,42.75
2018-02-18T05:23:40.880Z,42.75
2018-02-18T05:26:11.811Z,43.75
2018-02-18T05:28:42.570Z,35.50
2018-02-18T05:31:14.270Z,35.00
2018-02-18T05:33:47.050Z,39.25
2018-02-18T05:36:17.338Z,48.25
2018-02-18T05:38:48.024Z,50.50
2018-02-18T05:41:18.921Z,35.00
2018-02-18T05:43:49.163Z,36.25
2018-02-18T05:46:19.742Z,40.00
2018-02-18T05:48:50.104Z,41.25
2018-02-18T05:51:20.420Z,50.75
2018-02-18T05:53:50.850Z,40.25
2018-02-18T05:56:20.951Z,51.50
2018-02-18T05:58:52.802Z,45.50
2018-02-18T06:01:23.396Z,45.75
2018-02-18T06:03:53.772Z,49.75
2018-02-18T06:06:24.496Z,41.75
2018-02-18T06:08:55.166Z,43.75
2018-02-18T06:11:25.543Z,33.50
2018-02-18T06:13:56.510Z,52.00
2018-02-18T06:16:27.277Z,43.75
2018-02-18T06:18:58.054Z,40.25
2018-02-18T06:21:28.652Z,48.75
2018-02-18T06:23:59.192Z,45.00
2018-02-18T06:26:30.012Z,40.00
2018-02-18T06:29:00.310Z,46.50
2018-02-18T06:31:31.789Z,42.00
2018-02-18T06:34:02.939Z,41.75
2018-02-18T06:36:33.966Z,41.25
2018-02-18T06:39:05.068Z,45.25
2018-02-18T06:41:36.484Z,51.00
2018-02-18T06:44:07.503Z,51.00
2018-02-18T06:46:38.515Z,39.00
2018-02-18T06:49:10.085Z,40.75
2018-02-18T06:51:41.884Z,42.25
2018-02-18T06:54:14.734Z,42.25
2018-02-18T06:56:47.719Z,56.50
2018-02-18T06:59:18.853Z,43.75
2018-02-18T07:01:53.256Z,41.50
2018-02-18T07:04:25.961Z,45.75
2018-02-18T07:06:58.189Z,41.50
2018-02-18T07:09:30.398Z,47.25
2018-02-18T07:14:36.753Z,54.25
2018-02-18T07:17:08.710Z,43.25
2018-02-18T07:19:44.849Z,41.00
2018-02-18T07:22:16.713Z,47.25
2018-02-18T07:24:47.473Z,47.25
2018-02-18T07:27:18.248Z,43.00
2018-02-18T07:29:52.515Z,44.50
2018-02-18T07:32:24.829Z,44.50
2018-02-18T07:34:55.788Z,49.25
2018-02-18T07:37:27.569Z,54.75
2018-02-18T07:39:58.789Z,54.00
2018-02-18T07:42:29.933Z,47.50
2018-02-18T07:45:06.107Z,50.25
2018-02-18T07:47:37.758Z,51.75
2018-02-18T07:50:09.623Z,54.25
2018-02-18T07:52:41.631Z,53.25
2018-02-18T07:55:12.026Z,42.50
2018-02-18T07:57:48.315Z,52.25
2018-02-18T08:00:18.790Z,59.25
2018-02-18T08:02:49.236Z,53.25
2018-02-18T08:05:20.135Z,56.00
2018-02-18T08:07:50.609Z,59.25
2018-02-18T08:10:21.420Z,53.75
2018-02-18T08:12:52.476Z,49.75
2018-02-18T08:15:23.230Z,51.25
2018-02-18T08:17:53.976Z,53.25
2018-02-18T08:20:24.980Z,58.00
2018-02-18T08:22:56.013Z,57.50
2018-02-18T08:25:27.900Z,61.25
2018-02-18T08:27:59.059Z,51.00
2018-02-18T08:33:21.661Z,58.50
2018-02-18T08:35:52.988Z,51.25
2018-02-18T08:38:23.348Z,49.25
2018-02-18T08:40:53.760Z,47.00
2018-02-18T08:43:24.529Z,55.00
2018-02-18T08:45:57.732Z,55.75
2018-02-18T08:48:29.737Z,57.25
2018-02-18T08:51:06.249Z,59.00
2018-02-18T08:53:38.432Z,54.50
2018-02-18T08:56:10.491Z,50.75
2018-02-18T08:58:42.767Z,57.00
2018-02-18T09:01:14.571Z,56.25
2018-02-18T09:03:46.773Z,54.25
2018-02-18T09:06:18.922Z,48.25
2018-02-18T09:08:49.594Z,50.75
2018-02-18T09:11:20.865Z,50.00
2018-02-18T09:13:53.213Z,55.75
2018-02-18T09:16:24.089Z,52.25
2018-02-18T09:18:54.497Z,58.00
2018-02-18T09:21:25.013Z,60.00
2018-02-18T09:23:55.488Z,61.25
2018-02-18T09:26:26.555Z,55.75
2018-02-18T09:28:58.871Z,69.50
2018-02-18T09:31:30.027Z,64.25
2018-02-18T09:34:00.655Z,57.75
2018-02-18T09:36:31.108Z,54.75
2018-02-18T09:39:01.989Z,57.00
2018-02-18T09:41:32.479Z,59.00
2018-02-18T09:44:04.050Z,50.25
2018-02-18T09:46:45.878Z,57.00
2018-02-18T09:49:17.205Z,53.50
2018-02-18T09:51:48.213Z,57.75
2018-02-18T09:54:18.737Z,49.25
2018-02-18T09:56:49.183Z,56.75
2018-02-18T09:59:21.607Z,49.75
2018-02-18T10:01:52.869Z,51.75
2018-02-18T10:04:34.770Z,51.25
2018-02-18T10:07:09.599Z,49.50
2018-02-18T10:09:48.534Z,50.75
2018-02-18T10:12:28.757Z,52.75
2018-02-18T10:15:08.458Z,47.50
2018-02-18T10:17:47.635Z,48.25
2018-02-18T10:20:20.293Z,53.25
2018-02-18T10:22:51.190Z,43.00
2018-02-18T10:25:22.155Z,54.75
2018-02-18T10:27:57.317Z,52.50
2018-02-18T10:30:31.441Z,56.50
2018-02-18T10:33:02.520Z,51.25
2018-02-18T10:35:33.517Z,63.25
2018-02-18T10:38:04.450Z,57.50
2018-02-18T10:40:34.967Z,51.50
2018-02-18T10:43:05.752Z,55.75
2018-02-18T10:45:37.443Z,48.75
2018-02-18T10:48:07.927Z,53.25
2018-02-18T10:50:43.520Z,64.25
2018-02-18T10:53:14.755Z,54.75
2018-02-18T10:55:46.345Z,48.25
2018-02-18T10:58:16.723Z,59.50
2018-02-18T11:00:48.301Z,50.75
2018-02-18T11:03:19.136Z,61.25
2018-02-18T11:05:50.206Z,56.00
2018-02-18T11:08:22.445Z,52.25
2018-02-18T11:10:53.386Z,52.75
2018-02-18T11:13:24.808Z,51.50
2018-02-18T11:15:55.709Z,56.00
2018-02-18T11:18:26.928Z,59.50
2018-02-18T11:20:57.658Z,54.25
2018-02-18T11:23:28.574Z,53.25
2018-02-18T11:25:59.284Z,58.25
2018-02-18T11:28:30.107Z,48.75
2018-02-18T11:31:00.803Z,59.50
2018-02-18T11:33:31.389Z,52.25
2018-02-18T11:36:02.019Z,45.75
2018-02-18T11:38:34.119Z,45.75
2018-02-18T11:41:04.972Z,49.25
2018-02-18T11:43:35.389Z,51.25
2018-02-18T11:46:06.200Z,55.00
2018-02-18T11:48:37.033Z,45.50
2018-02-18T11:51:08.769Z,49.00
2018-02-18T11:53:39.660Z,48.50
2018-02-18T11:56:10.763Z,57.50
2018-02-18T11:58:41.698Z,59.00
2018-02-18T12:01:12.423Z,46.75
2018-02-18T12:03:50.742Z,46.75
2018-02-18T12:06:21.253Z,47.25
2018-02-18T12:08:52.407Z,53.00
2018-02-18T12:11:22.848Z,50.00
2018-02-18T12:13:54.615Z,43.75
2018-02-18T12:16:27.805Z,48.75
2018-02-18T12:18:58.319Z,59.00
2018-02-18T12:21:28.937Z,49.75
2018-02-18T12:23:59.611Z,49.25
2018-02-18T12:26:35.741Z,55.50
2018-02-18T12:29:16.119Z,44.75
2018-02-18T12:31:49.685Z,45.00
2018-02-18T12:34:22.495Z,47.00
2018-02-18T12:36:54.387Z,50.25
2018-02-18T12:39:36.448Z,43.50
2018-02-18T12:42:19.341Z,50.00
2018-02-18T12:44:51.367Z,43.75
2018-02-18T12:47:26.214Z,42.00
2018-02-18T12:49:56.616Z,45.25
2018-02-18T12:52:27.729Z,43.75
2018-02-18T12:54:58.303Z,44.50
2018-02-18T12:57:28.730Z,44.25
2018-02-18T13:00:01.149Z,48.50
2018-02-18T13:02:34.437Z,47.75
2018-02-18T13:05:05.070Z,48.25
2018-02-18T13:07:35.748Z,44.75
2018-02-18T13:10:07.637Z,41.75
2018-02-18T13:12:38.197Z,49.75
2018-02-18T13:15:10.052Z,44.25
2018-02-18T13:17:44.406Z,40.25
2018-02-18T13:20:14.919Z,50.00
2018-02-18T13:22:45.363Z,49.25
2018-02-18T13:25:15.809Z,50.50
2018-02-18T13:27:46.457Z,42.00
2018-02-18T13:30:21.061Z,37.00
2018-02-18T13:32:51.695Z,44.50
2018-02-18T13:35:22.986Z,41.00
2018-02-18T13:37:55.062Z,48.50
2018-02-18T13:40:25.364Z,42.00
2018-02-18T13:42:56.477Z,42.00
2018-02-18T13:45:27.117Z,39.50
2018-02-18T13:47:57.718Z,36.25
2018-02-18T13:50:29.187Z,41.00
2018-02-18T13:53:01.170Z,41.75
2018-02-18T13:55:32.284Z,44.25
2018-02-18T13:58:04.371Z,42.50
2018-02-18T14:00:35.168Z,42.25
2018-02-18T14:03:05.491Z,36.00
2018-02-18T14:05:36.608Z,37.00
2018-02-18T14:08:08.888Z,40.25
2018-02-18T14:10:41.837Z,38.75
2018-02-18T14:13:12.660Z,41.25
2018-02-18T14:15:47.154Z,33.25
2018-02-18T14:18:17.686Z,34.75
2018-02-18T14:20:53.003Z,26.00
2018-02-18T14:23:24.104Z,36.75
2018-02-18T14:26:01.778Z,34.75
2018-02-18T14:28:32.692Z,35.50
2018-02-18T14:31:03.613Z,29.50
2018-02-18T14:33:34.720Z,35.25
2018-02-18T14:36:08.288Z,32.50
2018-02-18T14:38:39.747Z,27.00
2018-02-18T14:41:13.555Z,30.50
2018-02-18T14:46:02.506Z,30.50
2018-02-18T14:50:45.098Z,26.50
2018-02-18T14:55:32.151Z,27.75
2018-02-18T14:58:02.649Z,27.75
2018-02-18T15:00:33.710Z,27.75
2018-02-18T15:03:05.522Z,25.75
2018-02-18T15:05:37.894Z,30.00
2018-02-18T15:08:10.563Z,26.50
2018-02-18T15:10:41.128Z,21.00
2018-02-18T15:13:12.258Z,30.75
2018-02-18T15:15:45.298Z,29.00
2018-02-18T15:18:50.600Z,32.25
2018-02-18T15:21:56.026Z,31.00
2018-02-18T15:24:40.298Z,34.00
2018-02-18T15:30:40.747Z,23.75
2018-02-18T15:33:14.304Z,28.50
2018-02-18T15:35:47.330Z,26.50
2018-02-18T15:38:47.641Z,30.50
2018-02-18T15:41:21.247Z,24.50
2018-02-18T15:43:59.634Z,27.00
2018-02-18T15:46:30.142Z,35.00
2018-02-18T15:49:01.290Z,28.25
2018-02-18T15:51:32.474Z,24.75
2018-02-18T15:54:03.087Z,22.00
2018-02-18T15:56:35.052Z,31.00
2018-02-18T15:59:06.483Z,22.75
2018-02-18T16:01:38.322Z,33.75
2018-02-18T16:04:08.835Z,38.75
2018-02-18T16:06:39.945Z,32.75
2018-02-18T16:09:11.593Z,26.75
2018-02-18T16:11:44.800Z,30.00
2018-02-18T16:14:16.569Z,40.50
2018-02-18T16:16:47.767Z,41.00
2018-02-18T16:19:20.300Z,36.50
2018-02-18T16:21:51.424Z,38.25
2018-02-18T16:24:22.436Z,33.50
2018-02-18T16:27:04.608Z,34.00
2018-02-18T16:29:35.188Z,39.50
2018-02-18T16:32:06.172Z,37.75
2018-02-18T16:34:42.968Z,36.50
2018-02-18T16:37:16.406Z,38.25
2018-02-18T16:39:50.034Z,39.75
2018-02-18T16:42:24.052Z,30.00
2018-02-18T16:44:55.046Z,39.25
2018-02-18T16:47:25.993Z,38.00
2018-02-18T16:50:02.175Z,35.25
2018-02-18T16:52:33.038Z,37.00
2018-02-18T16:55:07.136Z,38.75
2018-02-18T16:57:38.144Z,32.00
2018-02-18T17:00:22.442Z,36.50
2018-02-18T17:02:54.852Z,35.50
2018-02-18T17:05:30.444Z,34.50
2018-02-18T17:08:01.577Z,37.00
2018-02-18T17:10:32.256Z,35.75
2018-02-18T17:13:03.267Z,36.00
2018-02-18T17:15:34.694Z,31.50
2018-02-18T17:18:05.955Z,32.00
2018-02-18T17:20:39.227Z,33.25
2018-02-18T17:23:11.616Z,37.75
2018-02-18T17:25:42.252Z,32.00
2018-02-18T17:28:13.450Z,34.75
2018-02-18T17:30:44.833Z,35.25
2018-02-18T17:33:22.944Z,32.75
2018-02-18T17:35:54.015Z,32.00
2018-02-18T17:38:24.779Z,36.00
2018-02-18T17:40:56.577Z,36.00
2018-02-18T17:43:28.442Z,35.00
2018-02-18T17:46:00.070Z,39.25
2018-02-18T17:48:31.734Z,43.50
2018-02-18T17:51:04.235Z,38.25
2018-02-18T17:53:35.356Z,43.25
2018-02-18T17:56:06.920Z,46.75
2018-02-18T17:58:40.667Z,43.25
2018-02-18T18:01:13.908Z,35.50
2018-02-18T18:03:47.322Z,35.50
2018-02-18T18:06:22.294Z,42.50
2018-02-18T18:08:55.810Z,30.25
2018-02-18T18:11:27.351Z,42.75
2018-02-18T18:14:00.219Z,39.50
2018-02-18T18:16:32.089Z,44.50
2018-02-18T18:19:04.937Z,41.25
2018-02-18T18:21:35.918Z,44.75
2018-02-18T18:24:09.814Z,48.50
2018-02-18T18:26:43.795Z,55.75
2018-02-18T18:29:17.538Z,37.50
2018-02-18T18:31:56.335Z,48.25
2018-02-18T18:34:30.540Z,45.75
2018-02-18T18:37:02.378Z,42.25
2018-02-18T18:39:34.892Z,44.00
2018-02-18T18:42:07.504Z,46.00
2018-02-18T18:44:40.033Z,44.75
2018-02-18T18:47:11.994Z,57.00
2018-02-18T18:49:45.226Z,53.00
2018-02-18T18:52:17.338Z,42.75
2018-02-18T18:54:48.364Z,53.00
2018-02-18T18:57:21.423Z,48.50
2018-02-18T18:59:59.118Z,51.00
2018-02-18T19:02:34.741Z,56.00
2018-02-18T19:05:07.749Z,46.25
2018-02-18T19:07:41.797Z,50.00
2018-02-18T19:10:12.839Z,54.75
2018-02-18T19:12:46.242Z,51.00
2018-02-18T19:15:22.088Z,54.00
2018-02-18T19:17:54.053Z,39.50
2018-02-18T19:20:30.682Z,49.50
2018-02-18T19:23:04.656Z,46.75
2018-02-18T19:25:36.011Z,50.25
2018-02-18T19:28:08.630Z,55.00
2018-02-18T19:31:03.774Z,52.50
2018-02-18T19:33:34.482Z,51.25
2018-02-18T19:36:11.636Z,55.25
2018-02-18T19:38:42.557Z,59.75
2018-02-18T19:44:17.399Z,57.50
2018-02-18T19:46:55.576Z,56.00
2018-02-18T19:49:27.969Z,62.50
2018-02-18T19:52:02.183Z,60.00
2018-02-18T19:54:36.412Z,62.75
2018-02-18T19:57:08.908Z,65.25
2018-02-18T19:59:39.724Z,58.25
2018-02-18T20:02:10.837Z,59.00
2018-02-18T20:04:42.211Z,60.25
2018-02-18T20:07:12.966Z,60.75
2018-02-18T20:09:43.939Z,58.75
2018-02-18T20:12:15.343Z,54.50
2018-02-18T20:14:45.896Z,65.25
2018-02-18T20:17:20.642Z,64.00
2018-02-18T20:19:52.448Z,55.75
2018-02-18T20:22:23.524Z,64.50
2018-02-18T20:24:54.489Z,58.75
2018-02-18T20:27:26.812Z,63.00
2018-02-18T20:29:57.143Z,59.50
2018-02-18T20:32:27.994Z,62.25
2018-02-18T20:34:59.201Z,53.50
2018-02-18T20:37:30.299Z,68.50
2018-02-18T20:40:01.290Z,61.50
2018-02-18T20:42:31.862Z,53.50
2018-02-18T20:45:09.996Z,55.75
2018-02-18T20:47:46.893Z,60.25
2018-02-18T20:50:17.715Z,55.50
2018-02-18T20:52:56.350Z,69.00
2018-02-18T20:55:27.819Z,57.75
2018-02-18T20:57:59.857Z,60.00
2018-02-18T21:00:31.777Z,65.75
2018-02-18T21:03:08.998Z,61.00
2018-02-18T21:05:42.166Z,65.50
2018-02-18T21:08:16.994Z,55.75
2018-02-18T21:10:49.357Z,56.75
2018-02-18T21:13:28.915Z,74.00
2018-02-18T21:16:03.928Z,66.75
2018-02-18T21:18:39.004Z,66.25
2018-02-18T21:21:28.847Z,54.50
2018-02-18T21:24:21.100Z,60.75
2018-02-18T21:26:56.734Z,69.00
2018-02-18T21:29:27.585Z,64.25
2018-02-18T21:34:52.421Z,59.00
2018-02-18T21:37:29.334Z,60.75
2018-02-18T21:40:04.378Z,54.50
2018-02-18T21:42:39.049Z,63.75
2018-02-18T21:48:16.615Z,63.75
2018-02-18T21:50:48.232Z,60.00
2018-02-18T21:53:23.022Z,61.50
2018-02-18T21:56:03.516Z,61.75
2018-02-18T21:58:39.371Z,58.25
2018-02-18T22:01:10.512Z,65.25
2018-02-18T22:03:43.658Z,64.25
2018-02-18T22:06:22.923Z,52.50
2018-02-18T22:08:59.028Z,59.25
2018-02-18T22:11:33.016Z,53.00
2018-02-18T22:14:09.003Z,69.50
2018-02-18T22:16:44.348Z,64.50
2018-02-18T22:19:27.259Z,62.25
2018-02-18T22:22:15.073Z,55.25
2018-02-18T22:24:52.076Z,50.50
2018-02-18T22:27:31.105Z,61.25
2018-02-18T22:30:18.528Z,67.50
2018-02-18T22:32:55.220Z,56.00
2018-02-18T22:35:33.244Z,57.00
2018-02-18T22:38:07.781Z,70.75
2018-02-18T22:40:52.008Z,60.75
2018-02-18T22:43:27.588Z,62.00
2018-02-18T22:46:00.127Z,55.25
2018-02-18T22:48:38.118Z,54.00
2018-02-18T22:51:12.143Z,58.00
2018-02-18T22:53:45.520Z,51.75
2018-02-18T22:56:23.146Z,72.00
2018-02-18T22:58:56.757Z,55.00
2018-02-18T23:01:30.525Z,62.00
2018-02-18T23:04:02.092Z,67.25
2018-02-18T23:06:32.759Z,68.00
2018-02-18T23:09:10.379Z,69.75
2018-02-18T23:11:43.110Z,71.00
2018-02-18T23:14:17.363Z,59.50
2018-02-18T23:17:04.056Z,67.25
2018-02-18T23:19:38.716Z,58.75
2018-02-18T23:22:15.371Z,58.75
2018-02-18T23:24:50.225Z,63.50
2018-02-18T23:27:22.955Z,69.00
2018-02-18T23:29:55.994Z,65.50
2018-02-18T23:32:27.983Z,61.50
2018-02-18T23:35:03.872Z,56.50
2018-02-18T23:37:40.346Z,67.50
2018-02-18T23:40:12.832Z,66.25
2018-02-18T23:42:49.170Z,62.75
2018-02-18T23:45:22.811Z,75.25
2018-02-18T23:47:56.278Z,62.00
2018-02-18T23:50:29.128Z,72.50
2018-02-18T23:53:02.208Z,65.00
2018-02-18T23:55:33.368Z,72.50
2018-02-18T23:58:21.312Z,71.25
